Accueil
METAR-TAF:

METAR-TAF

Aéroports :

Touho, Nouvelle-Calédonie

Aérodrome de Touho

latitude: 20-47-25S, longitude: 165-15-34E, altitude: 3 m

METAR: absent

Heure: 21:29 (10:29 UTC)

Prévision

Le bulletin a été fait il y a 15 heures et 14 minutes, à 19:15 UTC
Prévision valable du 21 à 19 UTC au 22 à 18 UTC
Vent 6 kt de est
Visibilité 10 km ou plus
Nuages épars à une hauteur de 2000 ft
Temporairement
du 21 à 19 UTC au 21 à 24 UTC
Visibilité: 4000 m
Nuages fragmentés à une hauteur de 1400 ft
Nuages épars à une hauteur de 2000 ft, Cumulus congestus.
averses de pluie
Temporairement
du 21 à 19 UTC au 22 à 08 UTC
Visibilité: 2000 m
Nuages fragmentés à une hauteur de 1000 ft
Nuages épars à une hauteur de 1800 ft, Cumulonimbus.
orage, pluie

TAF: NWWU 211915Z 2119/2218 10006KT 9999 SCT020 TEMPO 2119/2124 4000 SHRA BKN014 SCT020TCU TEMPO 2119/2208 2000 TSRA BKN010 SCT018CB

Observations et prévisions météorologiques de plus de 4000 aéroports (messages METAR et TAF).

Les stations disponibles sont représentées par des disques jaunes et rouges sur la carte.

Passer la souris dessus pour voir le nom de la station.

Cliquer dessus pour voir les observations et prévisions météorologiques.

Pour changer de carte: cliquez sur les boutons verts avec une croix noire pour zoomer, sur le bouton vert avec un tiret pour effectuer un zoom arrière, ou sur les flèches vertes pour les cartes adjacentes.


METAR-TAF: